Regional Weather

 

KMKL - Jackson, TN, USA
Distance from station: WNW 50mi, 81km
Updated: Mon, May-27-2019 7:53am CDT
Clear
Clear
 Wind from SW
Wind: SW 7 mph , 11 km/h
Temperature: 79°F , 26°C
Dew Point: 70°F , 21°C
Humidity: 74%
Barometer: 30.06 inHg , 1017.9 hPa
Clouds: Clear
Visibility: 10 miles , 16 km
2019/05/27 12:53 KMKL 271253Z 22006KT 10SM CLR 26/21 A3006 RMK AO2 SLP173 T02610211 $
KMEM - Memphis, TN, USA
Distance from station: W 108mi, 173km
Updated: Mon, May-27-2019 7:54am CDT
Partly cloudy
Partly cloudy
 Wind from SSW
Wind: SSW 5 mph , 7 km/h
Temperature: 81°F , 27°C
Heat Index: 85°F , 29°C
Dew Point: 72°F , 22°C
Humidity: 74%
Barometer: 30.05 inHg , 1017.6 hPa
Clouds: Partly cloudy
Visibility: 10 miles , 16 km
Cloud details: Partly cloudy 25000 ft
2019/05/27 12:54 KMEM 271254Z 20004KT 10SM SCT250 27/22 A3005 RMK AO2 SLP170 T02670217 $
 
KBNA - Nashville, TN, USA
Distance from station: NE 97mi, 157km
Updated: Mon, May-27-2019 7:53am CDT
Partly cloudy
Partly cloudy
 Wind from S
Wind: S 3 mph , 6 km/h
Temperature: 79°F , 26°C
Dew Point: 64°F , 18°C
Humidity: 61%
Barometer: 30.07 inHg , 1018.3 hPa
Clouds: Partly cloudy
Visibility: 10 miles , 16 km
Cloud details: Few Clouds 20000 ft
Partly cloudy 25000 ft
2019/05/27 12:53 KBNA 271253Z 19003KT 10SM FEW200 SCT250 26/18 A3007 RMK AO2 SLP175 T02610178 $
KCKV - Clarksville, TN, USA
Distance from station: NNE 99mi, 159km
Updated: Mon, May-27-2019 7:52am CDT
Clear
Clear
 Wind from calm
Wind: Calm
Temperature: 73°F , 23°C
Dew Point: 66°F , 19°C
Humidity: 78%
Barometer: 30.05 inHg , 1017.6 hPa
Clouds: Clear
Visibility: 10 miles , 16 km
2019/05/27 12:52 KCKV 271252Z AUTO 00000KT 10SM CLR 23/19 A3005 RMK AO2 SLP170 T02330194 $
 
KPAH - Paducah, KY, USA
Distance from station: NNW 128mi, 205km
Updated: Mon, May-27-2019 7:53am CDT
Clear
Clear
 Wind from SSW
Wind: SSW 3 mph , 6 km/h
Temperature: 77°F , 25°C
Dew Point: 70°F , 21°C
Humidity: 79%
Barometer: 30.01 inHg , 1016.3 hPa
Clouds: Clear
Visibility: 9 miles , 14 km
2019/05/27 12:53 KPAH 271253Z 21003KT 9SM CLR 25/21 A3001 RMK AO2 SLP158 T02500206
KCHA - Chattanooga, TN, USA
Distance from station: E 165mi, 265km
Updated: Mon, May-27-2019 7:53am CDT
Partly cloudy
Partly cloudy
 Wind from calm
Wind: Calm
Temperature: 79°F , 26°C
Dew Point: 68°F , 20°C
Humidity: 70%
Barometer: 30.10 inHg , 1019.3 hPa
Clouds: Partly cloudy
Visibility: 10 miles , 16 km
Cloud details: Few Clouds 7000 ft
Partly cloudy 25000 ft
2019/05/27 12:53 KCHA 271253Z 00000KT 10SM FEW070 SCT250 26/20 A3010 RMK AO2 SLP184 T02560200 $
 
KTYS - Knoxville, TN, USA
Distance from station: E 234mi, 377km
Updated: Mon, May-27-2019 7:53am CDT
Partly cloudy
Partly cloudy
 Wind from SW
Wind: SW 5 mph , 7 km/h
Temperature: 75°F , 24°C
Dew Point: 63°F , 17°C
Humidity: 65%
Barometer: 30.10 inHg , 1019.3 hPa
Clouds: Partly cloudy
Visibility: 10 miles , 16 km
Cloud details: Few Clouds 20000 ft
Partly cloudy 25000 ft
2019/05/27 12:53 KTYS 271253Z 23004KT 10SM FEW200 SCT250 24/17 A3010 RMK AO2 SLP181 T02390172
KLIT - Little Rock, AR, USA
Distance from station: W 240mi, 386km
Updated: Mon, May-27-2019 7:53am CDT
Mostly cloudy
Mostly cloudy
 Wind from SW
Wind: SW 6 mph , 9 km/h
Temperature: 79°F , 26°C
Dew Point: 70°F , 21°C
Humidity: 74%
Barometer: 30.03 inHg , 1016.9 hPa
Clouds: Mostly cloudy
Visibility: 10 miles , 16 km
Cloud details: Few Clouds 15000 ft
Mostly cloudy 25000 ft
2019/05/27 12:53 KLIT 271253Z 23005KT 10SM FEW150 BKN250 26/21 A3003 RMK AO2 SLP167 T02560206 $

Refresh Page for latest data.